Airfield :
LOGIN :

Register | Disclaimer

   EN    FR    IT 

 










Legend :    VFR   Marginal VFR   IFR   Intensive IFR   Very Intensive IFR
Visi :
Ceiling :
>= 8 km
>= 3000ft
5 to 8 km
1000 to 3000 ft
1500m to 5 km
500 to 1000 ft
800 to 1500m
200 to 500 ft
< 800m
< 200 ft
Symbols :   Thunderstorms  Fog  Heavy snow  Heavy precipitations  Wind > 20 kt
SIGMETs :     Misc.  Thunderstorms  Icing  Turbulence  Mountain Waves  Volcanic Ashes






- Airport Elevation : 978 ft
- IATA code : LNZ


LOWL - Linz

CURRENT METAR :
  • 170620Z 27017KT 9999 FEW022 OVC024 03/M00 Q1027 NOSIG

EXPIRED METARs :
  • 170550Z 27016KT 9999 FEW020 OVC024 03/M00 Q1027 NOSIG
  • 170520Z 26016KT 9999 FEW018 BKN020 03/M00 Q1027 NOSIG
  • 170450Z 27014KT 9999 FEW018 BKN020 02/00 Q1028 NOSIG
  • 170420Z 27012KT 9999 FEW016 BKN020 02/00 Q1028 NOSIG

TAF TAF LOWL
Valid from the 17 at 06:00 until the 18 at 06:00 UTC


170515Z 1706/1806 27015G25KT 9999 BKN020 TX04/1716Z TN01/1806Z
TEMPO 1708/1719 27020G35KT
TEMPO 1715/1803 -SHRA
PROB30
TEMPO 1715/1721 SHRA BKN013



MET'MAP, your aeronautical weather chart ! - Copyright ORBIFLY December 2007 - Disclaimer

ORBIFLY MET'MAP TEAM :

Programming & Development : Alexandra Zaïnal
Concept & original design : Baudouin d'Aumeries
Assistance for programming : Marc-Olivier Méhu
Technical & hardware support : Manuel Goepfert

Contact : metmap@orbifly.com




SOURCES & CREDITS :

   NOAA